Date,TemperatureHighF,TemperatureAvgF,TemperatureLowF,DewpointHighF,DewpointAvgF,DewpointLowF,HumidityHigh,HumidityAvg,HumidityLow,PressureMaxIn,PressureMinIn,WindSpeedMaxMPH,WindSpeedAvgMPH,GustSpeedMaxMPH,PrecipitationSumIn
2013-1-1,83.7,79.0,75.6,76.0,73.9,72.0,93,85,76,30.06,29.94,9,5,23,0.01
2013-1-2,84.3,79.0,72.8,76.1,73.4,70.6,94,84,73,30.02,29.92,9,3,18,0.00
2013-1-3,84.6,78.8,73.6,76.6,73.7,71.2,94,85,72,30.06,29.96,8,2,16,0.00
2013-1-4,85.8,78.6,74.0,75.5,73.6,71.8,94,85,70,30.11,30.01,9,2,19,0.00
2013-1-6,83.8,78.3,72.6,75.8,73.2,70.0,92,85,76,30.05,29.97,8,3,18,0.00
2013-1-7,83.8,77.8,72.5,75.9,73.0,70.0,95,86,69,30.07,29.96,8,2,22,0.00
2013-1-8,86.2,79.5,73.0,75.2,72.4,68.2,93,80,57,30.06,29.93,9,4,21,0.01
2013-1-9,85.9,81.6,79.8,77.1,74.7,72.5,85,80,75,30.09,29.97,11,7,24,0.00
2013-1-10,80.9,80.2,79.3,74.4,73.6,72.6,85,81,78,30.08,30.05,7,5,18,0.00
2013-1-11,78.8,78.1,77.6,72.4,71.4,71.0,82,80,79,30.02,30.01,4,3,14,0.00
2013-1-12,84.7,79.3,75.4,72.5,71.6,70.2,89,78,65,30.04,29.95,9,4,20,0.00
2013-1-13,83.9,78.1,74.6,75.3,73.1,70.4,94,85,73,30.01,29.93,10,3,22,0.02
2013-1-14,84.1,78.0,73.4,74.4,72.3,68.9,94,83,68,30.05,29.97,8,3,20,0.05
2013-1-15,84.1,77.4,70.9,70.9,69.0,66.7,89,77,59,30.02,29.93,10,3,19,0.00
2013-1-16,83.1,77.9,71.9,74.9,71.1,68.5,90,80,72,30.02,29.92,6,3,14,0.00
2013-1-17,84.3,76.0,69.7,74.0,70.9,67.7,95,85,71,30.07,29.97,7,1,15,0.00
2013-1-19,82.8,77.0,70.0,72.2,70.3,68.0,94,81,65,30.10,29.99,7,3,20,0.23
2013-1-20,84.3,74.8,67.3,74.4,69.9,66.1,97,86,69,30.08,29.95,8,1,14,0.01
2013-1-21,85.0,74.8,67.2,74.3,69.6,66.0,97,85,62,30.06,29.95,7,1,13,0.01
2013-1-22,84.8,75.8,67.6,73.5,69.8,66.0,97,83,61,30.12,29.98,4,1,12,0.21
2013-1-23,82.2,76.6,72.0,71.6,69.3,67.2,92,79,63,30.15,30.05,6,3,18,0.00
2013-1-24,83.0,77.8,75.1,72.2,70.2,68.0,85,78,67,30.14,30.05,8,4,20,0.00
2013-1-25,80.8,76.6,73.3,72.1,70.4,68.4,91,81,73,30.12,30.03,9,5,20,0.05
2013-1-26,83.2,76.8,71.7,74.5,71.8,69.3,93,85,73,30.10,30.01,8,2,18,0.00
2013-1-27,84.7,77.9,71.3,75.7,72.9,69.5,95,85,72,30.12,30.03,10,3,19,0.00
2013-1-28,84.5,78.6,72.0,76.5,74.1,69.7,95,87,76,30.15,30.06,9,3,20,0.26
2013-1-29,84.7,80.1,77.3,76.4,74.0,72.7,90,82,74,30.11,30.00,10,5,22,0.00
2013-1-30,84.2,79.1,72.2,75.6,72.8,69.6,92,82,70,30.03,29.90,9,4,20,0.00
2013-1-31,87.5,78.6,71.3,75.4,72.2,69.2,95,82,59,30.08,29.97,8,2,18,0.00
2013-2-1,84.5,78.3,72.2,75.2,72.6,69.7,94,83,67,30.11,30.03,6,3,17,0.00
2013-2-2,84.5,78.5,74.2,72.9,70.9,68.8,90,79,62,30.10,29.99,10,4,21,0.01
2013-2-3,83.7,77.1,72.4,72.4,69.7,67.0,94,79,64,30.07,29.98,6,2,19,0.02
2013-2-4,81.1,75.3,69.6,69.6,67.6,65.7,89,78,66,30.03,29.93,10,3,20,0.00
2013-2-5,84.2,76.0,68.5,73.6,70.1,65.8,95,83,66,30.03,29.94,8,2,16,0.00
2013-2-6,84.7,76.6,69.7,73.8,70.9,67.9,95,83,67,30.05,29.96,8,2,16,0.00
2013-2-7,84.8,76.3,67.6,73.0,69.8,65.5,94,82,62,30.03,29.93,9,2,16,0.00
2013-2-8,86.2,75.7,67.6,73.1,68.7,65.7,97,81,59,30.04,29.94,6,1,14,0.01
2013-2-9,85.5,76.1,67.0,74.1,70.0,64.9,95,83,60,30.07,29.98,9,2,19,0.00
2013-2-10,85.7,78.9,71.4,72.7,70.9,68.9,92,78,63,30.11,30.00,10,4,23,0.00
2013-2-11,84.8,78.6,72.1,75.5,73.0,69.9,94,84,71,30.10,30.01,10,4,21,0.01
2013-2-12,85.2,80.4,76.9,75.2,73.1,71.7,86,79,70,30.08,29.96,8,5,15,0.00
2013-2-13,84.9,79.6,75.9,76.3,73.1,70.4,92,81,71,30.02,29.92,9,4,18,0.31
2013-2-14,85.2,80.3,75.6,74.6,72.6,71.2,92,78,66,30.01,29.92,9,5,19,0.16
2013-2-15,86.5,77.8,72.0,75.1,72.7,68.6,96,85,66,30.01,29.90,6,2,16,0.23
2013-2-16,85.8,76.6,68.1,74.1,70.5,67.2,98,83,58,30.04,29.91,9,3,21,0.01
2013-2-17,75.0,73.5,70.9,68.5,62.7,59.8,82,70,62,30.15,30.00,8,6,22,0.00
2013-2-18,77.0,73.0,69.9,70.9,65.4,59.7,89,77,69,30.15,30.02,8,5,19,0.00
2013-2-19,83.3,78.1,74.4,74.5,72.3,70.2,93,83,72,30.08,29.99,9,4,20,0.00
2013-2-20,84.7,77.5,71.6,75.0,72.5,69.9,96,85,71,30.04,29.92,9,2,19,0.00
2013-2-21,84.1,78.6,71.7,75.4,73.1,69.8,95,84,72,30.00,29.91,10,4,21,0.01
2013-2-22,85.3,78.9,70.3,76.0,72.8,67.5,95,82,72,30.03,29.93,10,4,22,0.00
2013-2-23,85.3,78.8,70.8,75.8,73.2,68.7,95,84,71,30.00,29.91,8,3,17,0.00
2013-2-24,86.5,79.5,73.7,75.6,73.2,71.3,94,82,66,30.00,29.88,7,3,16,0.26
2013-2-25,86.8,80.4,74.9,75.1,72.9,71.2,91,79,64,29.93,29.78,9,5,21,0.00
2013-2-26,87.3,81.8,78.4,77.4,74.5,72.5,87,79,66,29.96,29.81,8,5,19,0.00
2013-2-27,87.3,80.5,74.0,75.0,72.8,70.8,90,78,63,29.99,29.88,7,3,15,0.00
2013-2-28,88.0,78.1,69.7,74.0,69.9,63.2,95,78,49,30.00,29.89,8,2,15,0.00
2013-3-1,87.6,76.9,66.9,73.7,69.0,65.3,97,79,57,29.95,29.83,4,1,10,0.00
2013-3-2,85.5,73.4,68.4,73.8,69.0,66.0,96,87,64,30.01,29.85,10,3,22,0.19
2013-3-3,78.0,74.5,72.0,68.2,61.3,53.9,85,65,53,30.12,30.00,10,6,23,0.04
2013-3-4,76.4,71.3,64.8,61.3,57.8,53.9,78,64,51,30.17,30.05,7,3,20,0.00
2013-3-5,80.7,73.7,65.8,67.4,63.8,58.1,87,72,59,30.11,29.99,9,3,19,0.00
2013-3-6,81.7,74.5,69.2,72.1,67.5,63.3,90,80,69,30.10,29.99,7,2,16,0.00
2013-3-7,80.7,72.4,64.2,68.1,63.5,58.2,88,75,58,30.12,30.03,8,3,19,0.00
2013-3-8,79.9,71.7,63.4,65.1,61.4,56.9,86,71,54,30.11,30.02,7,2,18,0.00
2013-3-9,81.5,74.5,68.1,65.7,63.6,59.6,83,70,57,30.09,29.99,9,4,20,0.00
2013-3-10,82.3,76.6,69.0,69.4,66.7,63.5,84,72,62,30.05,29.91,11,6,22,0.00
2013-3-11,83.5,78.0,72.4,71.8,68.1,62.9,81,72,64,29.98,29.89,10,5,20,0.00
2013-3-12,86.0,79.3,72.8,73.7,71.3,69.6,90,77,64,30.03,29.91,6,3,13,0.00
2013-3-13,79.3,72.9,69.4,70.2,68.8,67.3,93,87,73,30.04,29.96,3,0,7,0.00
2013-3-14,76.2,74.8,72.6,73.0,68.9,62.3,95,83,65,30.06,29.96,7,4,20,0.36
2013-3-15,78.8,74.9,71.7,64.9,62.8,58.6,76,67,54,30.12,30.00,9,6,22,0.00
2013-3-16,82.0,75.8,70.7,67.9,65.7,62.7,85,72,59,30.07,29.97,10,4,21,0.00
2013-3-17,84.3,77.1,67.9,74.4,70.5,64.8,91,81,70,30.05,29.95,9,5,19,0.00
2013-3-18,85.3,82.1,77.2,75.0,73.9,71.9,87,77,72,30.03,29.95,6,5,14,0.00
2013-3-19,88.7,81.0,75.5,77.1,73.5,71.4,93,79,64,30.00,29.91,6,3,13,0.01
2013-3-20,86.3,79.6,73.3,74.9,72.8,69.7,94,81,68,29.96,29.85,7,2,14,0.01
2013-3-21,88.1,79.0,71.9,74.5,72.0,69.3,95,81,63,29.94,29.84,4,1,12,0.00
2013-3-22,86.3,80.6,72.1,75.7,73.3,69.5,93,79,69,29.99,29.89,8,5,19,0.00
2013-3-23,87.8,81.8,78.2,76.9,74.8,72.6,86,80,69,29.98,29.84,10,6,21,0.00
2013-3-24,89.0,82.4,78.4,77.2,74.7,72.4,85,78,68,29.90,29.77,7,5,18,0.00
2013-3-25,89.5,82.4,77.5,77.5,75.1,73.7,90,80,67,29.96,29.79,6,3,15,0.00
2013-3-26,85.3,78.2,73.8,77.5,73.1,66.4,94,85,74,30.09,29.89,8,3,24,0.19
2013-3-27,73.8,72.2,69.7,68.1,67.0,65.9,93,84,79,30.15,30.05,7,4,23,0.02
2013-3-28,77.8,74.2,70.3,69.3,66.5,61.7,93,78,66,30.12,30.04,7,4,19,0.02
2013-3-29,79.5,75.2,70.8,67.9,65.6,63.3,89,73,63,30.15,30.04,9,5,20,0.02
2013-3-30,79.0,76.6,74.5,71.4,68.8,66.3,88,77,71,30.10,30.01,9,6,24,0.00
2013-3-31,84.8,79.4,73.2,76.1,73.2,69.0,92,82,73,30.05,29.95,10,5,21,0.00
2013-4-1,87.0,80.3,75.9,77.2,75.1,73.2,94,85,69,30.04,29.95,8,3,16,0.00
2013-4-2,86.7,79.8,73.9,76.1,73.6,69.8,96,83,61,30.04,29.96,10,3,19,0.00
2013-4-3,85.9,79.5,72.6,77.2,74.7,71.2,96,86,74,30.01,29.90,10,4,20,0.00
2013-4-4,87.4,81.4,76.6,77.6,75.7,73.7,93,84,71,30.01,29.91,9,4,18,0.00
2013-4-5,89.8,81.8,76.9,78.7,76.2,74.7,94,84,69,29.99,29.88,5,2,15,0.03
2013-4-6,80.5,76.6,71.7,76.2,69.2,65.1,93,79,71,30.02,29.90,7,3,18,0.03
2013-4-7,87.2,79.5,71.3,75.8,71.0,64.1,91,76,62,30.01,29.93,7,2,13,0.00
2013-4-8,86.7,80.8,74.9,77.2,75.2,72.7,94,84,72,30.01,29.92,11,4,22,0.00
2013-4-9,86.5,80.9,75.6,78.2,75.8,73.7,95,85,73,30.00,29.92,10,4,20,0.00
2013-4-10,80.7,79.3,76.7,76.6,75.3,73.7,92,88,85,29.97,29.89,6,4,14,0.04
2013-4-11,87.8,82.1,78.3,78.1,76.4,74.9,92,83,72,29.94,29.83,10,6,20,0.00
2013-4-12,86.0,81.4,78.3,76.1,75.2,74.5,92,82,72,29.94,29.85,8,5,18,0.12
2013-4-13,87.1,81.6,76.4,77.6,75.3,73.2,92,82,71,29.94,29.85,8,5,16,0.00
2013-4-14,89.0,82.2,78.0,77.6,75.1,73.3,87,80,66,29.95,29.85,9,5,19,0.00
2013-4-15,87.5,82.6,79.4,77.8,75.8,73.7,89,81,69,29.99,29.88,9,5,20,0.00
2013-4-16,87.8,81.2,75.6,77.7,75.6,73.2,93,84,72,30.01,29.93,8,3,16,0.03
2013-4-17,87.3,81.3,75.4,78.3,75.6,73.4,95,84,71,29.99,29.90,10,4,19,0.01
2013-4-18,88.7,82.7,76.7,76.2,74.3,72.5,88,77,64,29.96,29.88,11,6,23,0.00
2013-4-19,89.4,82.9,78.8,76.9,74.4,72.7,84,76,65,30.01,29.90,10,5,21,0.00
2013-4-20,89.8,82.3,75.2,77.5,75.1,72.5,94,80,65,30.03,29.92,6,2,14,0.00
2013-4-21,88.3,81.9,76.0,77.3,74.8,71.5,92,80,65,30.04,29.93,10,2,20,0.00
2013-4-22,87.5,79.9,73.9,76.7,73.8,71.6,95,83,68,30.00,29.90,5,1,11,0.02
2013-4-23,89.6,80.4,73.5,75.4,72.9,68.4,94,79,54,29.99,29.90,7,1,15,0.00
2013-4-24,88.0,80.3,73.3,75.8,73.7,71.1,94,82,64,30.02,29.92,10,3,21,0.00
2013-4-25,75.2,74.8,74.4,73.1,72.7,72.3,94,93,92,30.00,29.97,0,0,1,0.00
2013-4-26,87.0,81.5,75.5,73.2,71.4,68.5,88,73,60,30.09,30.01,9,4,20,0.00
2013-4-27,86.7,80.2,72.4,74.1,71.9,69.3,95,77,59,30.05,29.94,9,4,23,0.46
2013-4-28,86.5,79.7,72.7,75.5,71.3,69.3,92,77,61,29.98,29.88,10,3,20,0.00
2013-4-29,88.3,82.6,77.8,74.6,72.2,68.8,81,72,58,29.95,29.86,7,4,15,0.00
2013-4-30,89.2,83.5,79.3,76.4,74.3,72.7,84,75,63,29.94,29.86,8,5,18,0.00
2013-5-1,90.0,83.6,80.0,77.1,75.2,73.1,88,77,65,29.94,29.85,8,5,20,0.04
2013-5-2,85.3,81.9,79.8,79.8,76.7,74.0,89,85,71,29.93,29.80,9,3,16,0.01
2013-5-3,87.4,81.0,71.4,77.4,74.9,68.9,94,82,68,29.88,29.79,9,3,17,0.17
2013-5-4,85.8,81.6,78.4,74.2,72.6,70.5,82,75,65,29.90,29.79,9,6,18,0.00
2013-5-5,85.1,80.5,75.2,74.1,72.2,70.2,85,77,66,29.99,29.83,7,4,16,0.00
2013-5-6,86.0,77.5,70.1,72.2,68.9,64.0,91,76,59,30.02,29.93,6,1,14,0.00
2013-5-7,86.9,77.3,65.3,72.7,68.5,62.3,92,76,61,30.05,29.95,7,2,13,0.00
2013-5-8,87.0,80.7,74.3,75.7,72.9,70.6,90,78,62,30.08,29.98,8,3,17,0.00
2013-5-9,88.5,82.2,74.7,79.2,76.2,72.0,95,83,71,30.07,29.99,10,4,22,0.00
2013-5-10,87.8,82.5,77.4,77.3,75.0,72.1,92,79,63,30.07,29.97,10,4,21,0.00
2013-5-11,88.0,81.3,74.2,77.5,75.1,72.1,95,82,68,30.03,29.92,10,4,21,0.00
2013-5-12,87.7,80.6,72.9,76.2,73.5,69.3,93,80,67,30.01,29.91,9,3,21,0.00
2013-5-13,87.7,80.1,72.4,75.6,72.5,68.9,92,79,65,30.04,29.96,9,2,19,0.00
2013-5-14,87.8,79.6,71.3,74.6,69.7,64.9,92,74,50,30.07,29.98,7,2,18,0.00
2013-5-15,88.8,81.0,71.0,74.7,71.3,66.4,92,74,50,30.04,29.96,9,3,19,0.00
2013-5-16,84.1,80.7,78.1,75.9,74.7,73.3,87,82,74,29.99,29.93,5,3,12,0.00
2013-5-17,89.2,81.8,76.2,78.7,75.5,72.7,91,82,68,30.02,29.93,11,4,23,0.01
2013-5-18,88.5,81.0,25.6,77.9,75.9,23.7,93,85,68,30.04,29.94,18,3,19,0.14
2013-5-19,88.0,82.6,76.5,78.8,76.6,74.0,93,82,73,30.01,29.91,17,3,19,0.00
2013-5-20,89.0,82.3,76.8,78.8,76.6,74.3,93,84,69,29.98,29.92,20,3,20,0.00
2013-5-21,85.4,83.7,81.9,76.9,76.4,75.9,83,79,75,29.94,29.86,12,3,12,0.00
2013-5-22,89.5,83.1,78.7,79.4,77.2,73.9,93,83,70,29.94,29.86,9,4,21,0.31
2013-5-23,89.9,85.9,79.1,79.3,77.6,75.6,91,77,68,29.99,29.91,7,5,15,0.00
2013-5-24,88.9,84.3,76.6,78.9,76.7,73.5,94,78,66,30.02,29.93,9,4,18,0.27
2013-5-25,88.5,82.5,76.2,77.2,75.3,72.6,94,79,61,30.04,29.95,7,2,16,0.00
2013-5-26,88.5,82.4,77.7,78.3,76.5,74.5,91,83,71,30.03,29.94,10,3,21,0.10
2013-5-27,88.3,82.5,76.8,79.1,76.4,72.9,94,82,73,30.01,29.92,9,3,19,0.01
2013-5-28,86.5,81.9,75.6,79.4,76.7,72.2,95,84,70,30.00,29.89,9,4,16,0.44
2013-5-29,84.3,78.7,74.1,79.1,75.9,72.0,96,91,83,29.99,29.90,9,3,20,0.54
2013-5-30,84.4,79.5,74.5,79.4,76.5,73.0,96,91,84,29.97,29.88,10,5,24,1.13
2013-5-31,79.7,76.9,74.4,77.2,75.4,73.5,97,95,91,30.01,29.89,11,4,25,2.70
2013-6-1,87.5,83.2,79.6,80.2,78.8,77.1,94,87,79,29.97,29.89,10,7,22,0.14
2013-6-2,88.7,83.2,77.1,80.7,78.4,74.4,94,86,76,29.94,29.88,9,6,21,0.89
2013-6-3,89.7,85.1,81.5,80.4,78.7,77.2,89,82,74,29.92,29.85,9,7,23,0.00
2013-6-4,88.8,84.8,80.4,80.4,78.9,77.2,90,83,76,29.93,29.88,9,7,23,0.02
2013-6-5,90.8,86.0,81.6,81.2,79.2,77.6,89,81,72,29.93,29.82,8,6,21,0.00
2013-6-6,90.8,86.0,81.9,80.9,79.1,77.3,89,80,71,29.92,29.83,8,6,18,0.00
2013-6-7,89.9,85.3,80.7,80.5,78.7,77.3,91,81,73,29.97,29.87,8,6,21,0.02
2013-6-8,88.3,84.6,78.2,80.0,78.3,75.9,94,82,74,29.99,29.92,9,4,18,0.00
2013-6-9,88.8,84.8,78.2,79.5,77.7,75.7,93,80,71,29.99,29.91,10,5,20,0.00
2013-6-10,88.7,84.2,79.0,80.2,78.3,76.3,93,83,73,30.00,29.93,9,5,20,0.06
2013-6-11,88.7,83.6,76.7,80.3,77.4,73.9,95,82,70,30.04,29.96,9,4,18,0.03
2013-6-12,90.0,84.5,77.2,79.8,77.9,75.3,96,81,69,30.05,29.98,8,3,15,0.00
2013-6-13,89.5,84.2,79.7,80.1,77.0,71.5,92,79,71,30.03,29.95,8,3,17,0.00
2013-6-14,88.9,83.8,77.6,79.2,77.6,75.7,95,82,72,29.98,29.91,7,2,15,0.00
2013-6-15,89.5,83.5,77.1,79.0,77.0,75.2,94,82,69,30.00,29.93,5,2,19,0.00
2013-6-16,87.1,79.6,74.1,79.2,75.6,72.4,97,88,75,30.01,29.91,14,2,27,1.15
2013-6-17,86.8,83.5,78.5,80.3,78.5,75.1,97,85,77,30.00,29.92,9,5,20,0.01
2013-6-18,87.2,84.3,80.3,79.9,78.6,77.4,91,83,75,30.00,29.93,8,5,18,0.01
2013-6-19,88.5,84.8,79.6,79.9,78.6,77.3,93,82,75,29.97,29.89,8,4,19,0.00
2013-6-20,89.0,84.5,78.7,80.1,78.6,73.2,94,83,67,30.00,29.92,9,4,18,0.00
2013-6-21,88.0,83.8,78.1,80.2,78.3,75.1,95,84,75,30.02,29.94,9,4,21,0.05
2013-6-22,88.3,83.4,73.4,79.8,77.3,71.3,97,82,73,30.03,29.95,8,3,25,0.01
2013-6-23,89.2,84.4,76.9,80.2,77.8,75.0,95,81,73,30.02,29.94,8,4,16,0.00
2013-6-24,89.6,85.0,77.3,79.5,77.8,74.8,93,79,69,30.04,29.97,9,4,19,0.00
2013-6-25,91.6,85.2,78.0,79.7,78.0,75.9,95,80,67,30.05,29.94,8,3,14,0.00
2013-6-26,89.7,85.4,77.6,79.7,77.9,75.7,94,79,69,30.00,29.93,7,3,14,0.03
2013-6-27,88.6,81.2,76.4,79.7,77.3,73.9,96,88,71,29.99,29.91,3,0,12,1.58
2013-6-28,90.4,83.7,75.4,80.2,77.5,74.5,98,83,69,29.94,29.85,7,2,16,0.13
2013-6-29,87.9,82.1,76.7,78.9,76.4,73.1,93,83,71,29.95,29.85,10,5,22,0.14
2013-6-30,89.1,82.0,76.2,78.4,75.8,70.8,93,82,69,29.93,29.86,11,6,23,0.28
2013-7-1,84.4,80.4,74.5,78.7,76.0,72.3,94,87,79,29.99,29.88,9,4,21,0.68
2013-7-2,82.7,80.0,76.3,79.5,76.9,74.6,96,91,84,30.02,29.91,10,5,26,0.74
2013-7-3,88.2,84.1,81.1,79.3,77.7,76.2,89,81,75,30.04,29.95,8,6,16,0.00
2013-7-4,88.3,84.8,81.3,79.9,77.6,75.8,87,79,72,30.03,29.96,6,4,14,0.00
2013-7-5,89.1,84.7,79.5,81.0,78.7,75.3,89,82,76,30.03,29.95,8,4,15,0.00
2013-7-6,88.5,82.3,75.6,79.8,77.2,73.1,95,85,73,30.00,29.91,8,3,21,0.10
2013-7-7,88.2,82.5,76.4,79.7,77.3,74.9,96,85,71,29.99,29.90,9,3,18,0.00
2013-7-8,88.3,83.3,75.6,79.3,77.2,74.1,95,83,72,30.02,29.94,10,4,18,0.00
2013-7-9,89.7,84.5,77.0,80.6,78.2,73.8,94,82,70,30.05,29.98,8,4,18,0.00
2013-7-10,89.9,84.5,76.7,80.1,77.7,73.7,92,81,67,30.02,29.94,6,2,20,0.00
2013-7-11,89.8,81.7,77.0,80.0,76.9,73.7,95,86,68,29.98,29.90,7,2,15,0.51
2013-7-12,89.3,81.1,72.8,80.7,76.9,71.6,96,87,72,29.98,29.88,8,3,18,2.43
2013-7-13,85.2,80.1,72.5,79.7,76.0,71.3,97,88,78,29.99,29.92,7,4,18,0.91
2013-7-14,88.5,83.0,78.7,80.4,77.6,75.1,94,84,74,29.98,29.91,7,2,16,0.00
2013-7-15,87.8,81.9,76.7,79.3,76.4,74.3,93,84,74,29.96,29.88,8,2,18,0.00
2013-7-16,87.8,83.8,75.7,78.7,77.1,74.2,95,81,71,30.00,29.90,8,4,17,0.35
2013-7-17,88.4,83.4,77.7,80.5,78.3,74.5,93,85,76,30.02,29.94,11,4,23,0.42
2013-7-18,88.3,84.2,77.7,80.2,78.6,74.9,93,83,76,30.04,29.95,8,3,16,0.03
2013-7-19,88.6,84.2,77.7,81.0,79.0,76.2,96,85,77,30.02,29.95,9,4,20,0.00
2013-7-20,88.4,86.5,83.9,79.5,77.7,75.7,78,75,71,30.03,29.96,10,8,22,0.00
2013-7-21,89.2,84.9,78.5,80.4,78.4,75.6,91,81,74,30.04,29.97,9,4,16,0.00
2013-7-22,88.8,84.7,75.8,79.9,78.2,72.9,93,81,72,30.05,29.97,8,4,18,0.01
2013-7-23,88.7,82.5,77.7,80.6,78.2,76.4,96,87,75,30.06,29.95,8,2,16,0.00
2013-7-24,89.9,84.7,76.9,80.1,78.4,75.0,96,82,70,30.00,29.93,8,3,16,0.00
2013-7-25,91.0,85.1,76.0,81.4,79.0,74.5,96,82,69,30.07,29.93,7,2,14,0.00
2013-7-26,91.2,84.9,77.3,81.3,78.5,75.4,96,82,68,30.07,29.99,7,2,14,0.00
2013-7-27,89.7,82.2,75.7,81.1,77.6,73.9,96,86,73,30.03,29.93,4,1,12,0.17
2013-7-28,90.0,84.3,75.6,79.8,77.4,73.8,95,80,68,30.03,29.94,8,3,16,0.00
2013-7-29,90.3,83.5,78.1,80.3,77.8,75.9,94,84,70,30.07,29.95,7,2,14,0.01
2013-7-30,91.2,84.4,77.7,80.8,78.3,75.8,95,83,67,30.06,29.99,8,2,15,0.00
2013-7-31,92.0,83.8,78.3,80.2,77.5,75.1,95,82,64,30.02,29.94,2,0,7,0.00
2013-8-1,92.5,86.3,76.5,79.3,77.1,74.0,94,75,63,30.01,29.93,3,1,8,0.00
2013-8-2,90.4,83.8,76.3,79.8,77.0,74.2,95,81,66,30.08,29.94,7,3,16,0.00
2013-8-3,90.6,84.9,79.4,80.5,78.1,74.4,93,81,66,30.08,29.98,10,3,19,0.00
2013-8-4,91.4,85.5,79.5,83.0,80.1,77.3,94,84,72,30.06,29.95,8,3,18,0.00
2013-8-5,92.7,84.9,79.8,82.4,79.2,76.4,95,84,70,30.03,29.94,3,1,14,0.00
2013-8-6,91.5,82.7,75.8,81.5,77.4,74.3,96,84,71,30.00,29.92,3,0,12,0.00
2013-8-7,92.2,82.0,74.5,79.5,75.5,73.1,96,82,57,29.96,29.86,4,1,13,0.00
2013-8-8,86.8,79.8,74.5,79.3,75.9,72.7,96,88,74,29.93,29.84,8,0,15,0.13
2013-8-9,91.7,84.3,77.8,81.2,77.3,75.0,92,80,65,29.95,29.87,7,2,15,0.07
2013-8-10,90.9,83.7,76.9,81.3,77.8,75.1,96,83,66,29.98,29.92,9,3,19,0.07
2013-8-11,89.1,82.6,78.4,80.6,77.5,74.0,94,85,68,30.00,29.92,8,2,18,0.13
2013-8-12,90.2,83.2,76.5,79.5,77.3,74.0,94,83,69,29.97,29.89,8,2,15,0.00
2013-8-13,89.6,81.5,76.8,80.8,76.6,73.9,93,85,66,29.95,29.86,11,5,23,0.21
2013-8-14,84.6,79.8,73.6,78.6,76.3,71.8,95,89,77,29.95,29.86,10,4,22,1.90
2013-8-15,82.1,81.3,78.4,79.2,78.1,74.8,94,90,86,29.94,29.88,6,4,13,0.00
2013-8-16,89.5,84.9,79.7,80.6,78.2,76.8,92,81,72,29.98,29.91,8,4,19,0.00
2013-8-17,90.9,84.2,76.8,79.8,77.6,75.3,95,81,66,29.98,29.89,7,2,14,0.00
2013-8-18,89.9,83.1,76.9,80.3,76.5,74.4,93,81,66,29.98,29.90,7,2,15,0.00
2013-8-19,89.5,82.1,76.2,80.8,77.5,74.1,94,86,71,29.96,29.85,6,2,14,0.04
2013-8-20,89.5,83.6,76.9,80.3,78.2,75.4,96,84,73,29.95,29.87,9,3,16,0.01
2013-8-21,90.6,84.5,77.9,80.9,78.2,76.0,95,82,69,29.96,29.88,8,3,18,0.01
2013-8-22,85.6,78.5,72.1,80.8,75.5,69.6,97,91,80,29.97,29.87,10,2,29,2.59
2013-8-23,87.8,79.6,73.0,80.6,76.3,72.1,97,90,78,29.97,29.85,9,3,22,0.40
2013-8-24,89.2,83.5,75.8,81.2,78.0,71.7,94,84,70,30.02,29.89,8,3,16,0.01
2013-8-25,90.9,84.8,79.6,80.0,78.4,76.7,93,82,68,30.04,29.95,6,3,14,0.00
2013-8-26,89.8,83.6,78.4,81.5,78.4,75.9,94,85,71,30.00,29.91,8,2,18,0.00
2013-8-27,90.3,83.5,77.9,79.7,77.7,75.9,94,83,66,29.97,29.87,6,1,14,0.00
2013-8-28,88.5,83.1,75.8,79.5,77.4,72.7,94,84,69,30.06,29.89,9,1,19,0.21
2013-8-29,86.4,77.9,74.0,82.4,76.0,71.7,97,94,82,30.04,29.91,7,1,16,0.86
2013-8-30,87.4,81.2,75.8,80.1,77.6,74.7,97,89,79,29.99,29.90,7,1,14,0.00
2013-8-31,88.0,80.2,75.4,81.4,76.7,73.9,96,89,74,29.97,29.87,8,2,19,0.57
2013-9-1,87.8,81.0,76.1,80.9,78.0,74.9,96,91,79,29.98,29.88,7,2,15,0.08
2013-9-2,88.4,81.5,73.5,81.8,77.4,71.7,97,88,75,30.00,29.89,11,2,23,0.55
2013-9-3,91.8,84.0,77.1,80.9,78.0,74.5,94,83,67,29.97,29.87,3,1,8,0.00
2013-9-4,90.0,80.8,77.2,80.8,77.4,75.2,95,90,74,29.96,29.86,4,1,12,0.14
2013-9-5,89.4,83.5,78.4,80.6,78.2,75.2,93,85,74,29.95,29.87,6,2,15,0.00
2013-9-6,90.2,83.7,77.5,81.6,78.7,75.7,96,85,69,29.94,29.83,7,1,13,0.00
2013-9-7,90.6,86.7,78.9,81.3,79.7,77.1,95,80,74,29.91,29.84,6,4,14,0.01
2013-9-8,89.0,86.9,79.6,80.0,79.2,76.0,93,78,75,29.89,29.81,6,4,11,0.02
2013-9-9,85.4,81.6,78.7,79.3,77.5,76.0,93,88,78,29.93,29.84,8,1,16,0.02
2013-9-10,85.3,80.5,76.6,79.5,76.9,74.5,95,89,80,29.96,29.85,10,5,22,0.50
2013-9-11,85.2,81.2,75.6,79.0,76.4,72.5,95,86,81,29.96,29.85,11,6,24,0.63
2013-9-12,87.3,81.5,74.6,81.3,77.1,73.4,97,87,78,29.93,29.80,6,3,18,1.10
2013-9-13,88.8,83.0,77.7,79.8,77.7,73.7,94,84,73,29.84,29.75,8,2,15,0.00
2013-9-14,88.1,82.4,77.9,80.0,77.7,75.1,93,86,77,29.90,29.76,7,1,15,0.06
2013-9-15,85.3,81.9,74.8,78.1,75.9,70.2,88,82,76,29.95,29.82,6,2,20,0.43
2013-9-16,87.2,83.1,78.7,77.1,75.1,71.6,81,77,71,29.93,29.83,7,3,15,0.00
2013-9-17,85.8,81.5,75.7,75.2,72.0,68.7,80,73,69,29.93,29.82,9,5,21,0.59
2013-9-18,87.5,82.8,74.3,73.8,70.7,63.5,72,67,64,29.97,29.83,13,3,29,0.84
2013-9-19,88.7,84.0,76.9,73.5,69.6,65.1,67,62,61,29.95,29.85,7,5,20,0.00
2013-9-20,83.9,81.1,75.9,67.0,64.4,60.1,61,57,54,29.96,29.85,5,1,20,0.59
2013-9-21,90.2,82.4,77.2,73.9,66.8,59.3,63,59,52,29.88,29.75,6,1,14,0.00
2013-9-22,88.8,82.7,73.4,72.5,65.3,56.0,60,56,48,29.89,29.79,9,3,19,1.17
2013-9-23,89.8,85.4,82.6,75.6,70.5,66.8,65,61,59,29.94,29.84,8,4,18,0.00
2013-9-24,89.1,84.7,82.4,72.8,68.6,64.6,61,59,55,29.96,29.86,7,3,14,0.00
2013-9-25,89.3,84.0,78.5,71.6,65.9,58.1,60,55,47,29.92,29.83,7,2,14,0.00
2013-9-26,89.6,84.1,78.7,72.9,65.2,57.9,59,53,47,29.93,29.84,7,2,15,0.00
2013-9-27,89.9,81.4,77.0,73.7,60.6,53.0,59,49,43,29.94,29.85,4,0,10,0.02
2013-9-28,90.0,80.5,74.9,77.1,59.9,49.6,66,50,38,29.95,29.86,4,0,12,0.22
2013-9-29,87.7,80.0,74.6,75.8,59.6,48.7,68,51,37,29.93,29.84,3,0,11,0.01
2013-9-30,88.4,83.2,75.3,76.0,66.7,47.2,69,59,35,29.92,29.83,8,3,15,0.00
2013-10-1,82.8,79.7,76.7,68.7,58.2,50.4,64,48,38,29.95,29.85,11,4,24,0.01
2013-10-2,82.5,78.3,73.5,65.4,50.1,42.2,57,38,27,29.97,29.86,9,3,23,1.20
2013-10-3,88.9,83.5,77.1,71.6,59.9,44.0,57,46,27,29.96,29.86,7,3,14,0.00
2013-10-4,88.6,83.3,78.7,72.5,56.7,41.2,60,42,25,29.97,29.89,7,2,15,0.00
2013-10-5,89.1,84.4,77.4,72.8,61.2,38.6,84,62,23,29.95,29.86,8,3,15,0.00
2013-10-6,91.3,82.9,75.8,77.0,58.1,37.5,89,67,43,29.94,29.85,3,1,11,0.00
2013-10-7,91.5,82.4,75.0,77.5,57.6,36.1,89,64,42,29.96,29.87,4,0,11,0.00
2013-10-8,90.8,82.1,74.2,77.4,57.9,35.2,78,57,29,29.98,29.88,4,1,12,0.00
2013-10-9,88.1,82.4,77.4,74.8,58.7,39.4,76,57,35,29.97,29.89,2,0,9,0.00
2013-10-10,89.0,83.1,77.5,75.5,60.7,36.2,80,60,31,29.95,29.86,3,1,11,0.00
2013-10-11,90.3,82.5,75.0,78.3,64.2,38.3,89,69,34,29.93,29.85,3,0,10,0.00
2013-10-12,90.5,82.7,76.5,78.2,67.8,45.6,94,75,44,29.96,29.86,2,0,10,0.00
2013-10-13,89.8,82.1,76.9,77.7,70.9,58.0,92,82,63,29.96,29.85,4,1,12,0.00
2013-10-14,88.8,81.1,75.9,77.0,64.0,47.6,87,70,45,29.92,29.82,6,1,13,0.08
2013-10-15,89.9,81.0,74.1,76.6,59.2,40.8,84,62,38,29.93,29.84,5,0,12,0.03
2013-10-16,88.0,80.4,75.1,80.4,59.2,38.8,80,56,34,29.94,29.83,1,0,8,0.00
2013-10-17,92.3,80.5,71.3,76.4,59.3,35.7,76,55,26,29.94,29.86,1,0,7,0.00
2013-10-18,89.1,81.0,71.3,76.4,60.7,36.5,74,56,27,29.94,29.85,4,1,9,0.00
2013-10-19,90.1,82.9,76.0,76.9,62.0,39.6,72,55,28,29.95,29.85,6,1,14,0.00
2013-10-20,89.9,81.9,76.0,76.1,58.4,39.0,71,51,28,29.96,29.86,6,2,15,0.94
2013-10-21,88.5,81.2,75.6,77.6,56.4,34.6,75,50,23,29.97,29.87,7,1,15,0.01
2013-10-22,88.8,82.7,75.8,76.4,62.2,37.8,73,56,25,29.93,29.83,6,2,13,0.00
2013-10-23,89.5,82.8,76.4,77.0,60.5,36.8,75,54,25,29.94,29.82,5,1,13,0.00
2013-10-24,88.9,82.9,77.7,76.5,60.5,42.7,75,54,32,29.97,29.87,7,2,16,0.03
2013-10-25,89.4,82.5,77.5,75.4,55.1,38.3,69,46,27,29.98,29.89,8,2,16,0.24
2013-10-26,88.7,81.5,77.5,77.5,57.4,41.8,72,49,31,29.97,29.89,7,2,21,0.12
2013-10-27,87.1,81.3,75.4,73.1,54.0,35.8,74,51,33,29.97,29.88,9,2,19,0.56
2013-10-28,88.6,83.6,79.7,74.6,64.4,46.6,80,64,41,30.00,29.88,7,2,16,0.00
2013-10-29,87.8,82.8,78.9,75.2,63.0,44.8,79,63,37,30.03,29.93,5,1,15,0.05
2013-10-30,87.5,83.3,79.4,75.6,69.1,58.0,80,73,58,30.02,29.90,7,3,19,0.03
2013-10-31,88.8,83.0,79.4,75.4,65.4,53.0,77,66,49,29.99,29.88,8,2,20,0.00
2013-11-1,88.9,81.6,74.6,76.4,63.7,44.8,84,66,38,29.94,29.85,7,2,15,0.04
2013-11-2,88.0,79.3,73.4,74.5,58.0,41.6,80,60,36,29.92,29.81,4,0,14,0.10
2013-11-3,85.4,78.2,73.6,68.9,46.2,34.1,68,44,30,29.91,29.83,6,1,16,0.26
2013-11-4,86.2,80.1,73.8,70.2,50.9,31.5,69,49,30,29.92,29.82,5,2,20,0.62
2013-11-5,87.2,81.2,74.8,64.2,40.4,27.9,57,35,23,29.87,29.79,7,1,19,1.73
2013-11-6,85.9,81.7,78.7,46.0,28.5,17.7,35,25,20,29.92,29.81,8,2,16,0.33
2013-11-7,84.9,80.7,77.4,52.5,20.9,-2.3,43,22,14,29.94,29.83,3,0,11,0.00
2013-11-8,87.5,84.3,76.7,68.0,44.7,-17.0,100,76,12,29.91,29.82,6,3,13,0.00
2013-11-9,88.5,84.4,79.3,62.3,33.7,-29.4,100,60,15,29.98,29.87,9,4,19,0.00
2013-11-10,88.1,82.3,78.5,83.7,22.2,-30.1,99,43,15,30.00,29.90,6,1,15,0.00
2013-11-11,88.3,81.5,75.5,54.8,1.9,-31.2,83,35,15,30.00,29.91,9,2,19,0.00
2013-11-12,88.4,82.4,78.3,55.2,3.8,-29.2,81,35,15,29.98,29.86,8,2,16,0.00
2013-11-13,78.7,78.0,77.3,-28.8,-28.8,-28.8,15,15,15,29.94,29.89,0,0,0,0.00
2013-11-14,86.7,84.1,82.0,55.1,27.7,-0.3,61,40,23,29.99,29.90,8,5,23,0.00
2013-11-15,88.9,82.6,79.1,49.6,-10.3,-29.4,67,22,15,29.97,29.86,8,2,22,0.00
2013-11-16,88.3,82.2,77.2,48.5,2.0,-27.9,69,28,15,29.98,29.89,7,2,15,0.18
2013-11-17,88.3,81.3,74.8,38.0,-19.4,-27.9,49,18,15,29.96,29.86,7,2,16,0.08
2013-11-18,87.1,81.5,76.6,52.3,-1.5,-28.6,77,32,15,29.93,29.82,3,1,13,0.00
2013-11-19,86.1,80.5,75.8,59.0,0.9,-30.0,97,38,15,29.90,29.80,6,1,14,0.02
2013-11-20,79.9,78.3,73.7,-30.0,-30.0,-30.0,15,15,15,29.97,29.86,7,2,15,0.00
2013-11-21,79.9,79.9,79.9,-30.0,-30.0,-30.0,15,15,15,30.02,29.93,8,2,23,0.00
2013-11-22,79.9,79.9,79.9,-30.0,-30.0,-30.0,15,15,15,30.01,29.91,7,2,19,0.01
2013-11-23,79.9,79.9,79.9,-30.0,-30.0,-30.0,15,15,15,29.96,29.86,5,1,15,0.03
2013-11-24,79.9,79.9,79.9,-30.0,-30.0,-30.0,15,15,15,29.97,29.88,4,1,16,0.00